Time;durP1;ratioP1;P1;durP2;ratioP2;P2;SDS_P1;SDS_P2;PMS_P1;PMS_P2;Temp;Humidity;BMP_temperature;BMP_pressure;BME280_temperature;BME280_humidity;BME280_pressure;Samples;Min_cycle;Max_cycle;Signal;HPM_P1;HPM_P2
2022/12/20 00:02:15;;;;;;;5.88;1.00;;;21.70;99.90;;;;;;5112337;28;20226;-78
2022/12/20 00:04:45;;;;;;;4.88;1.00;;;21.50;99.90;;;;;;5113630;28;20245;-79
2022/12/20 00:07:16;;;;;;;8.02;0.88;;;21.50;99.90;;;;;;5113138;28;20259;-78
2022/12/20 00:09:47;;;;;;;5.28;0.90;;;21.40;99.90;;;;;;5113412;28;20187;-79
2022/12/20 00:12:20;;;;;;;3.42;0.90;;;21.30;99.90;;;;;;5113215;28;20187;-78
2022/12/20 00:14:51;;;;;;;3.72;0.80;;;21.30;99.90;;;;;;5113670;28;20215;-80
2022/12/20 00:17:22;;;;;;;5.30;0.80;;;21.20;99.90;;;;;;5113517;28;20187;-77
2022/12/20 00:19:53;;;;;;;5.88;1.52;;;21.10;99.90;;;;;;5113475;28;20188;-77
2022/12/20 00:22:24;;;;;;;3.95;0.95;;;21.00;99.90;;;;;;5113530;28;20214;-78
2022/12/20 00:24:55;;;;;;;7.20;1.58;;;20.90;99.90;;;;;;5113323;28;20192;-78
2022/12/20 00:27:28;;;;;;;3.72;0.80;;;21.10;99.90;;;;;;5113393;28;20187;-79
2022/12/20 00:29:59;;;;;;;5.55;0.88;;;21.00;99.90;;;;;;5113674;28;20241;-78
2022/12/20 00:32:30;;;;;;;3.72;0.80;;;21.00;99.90;;;;;;5113416;28;20200;-78
2022/12/20 00:35:01;;;;;;;6.43;0.95;;;20.90;99.90;;;;;;5113521;28;20587;-78
2022/12/20 00:37:32;;;;;;;7.00;1.17;;;20.90;99.90;;;;;;5115297;28;20242;-78
2022/12/20 00:40:03;;;;;;;4.10;0.80;;;20.80;99.90;;;;;;5112888;28;20188;-76
2022/12/20 00:42:36;;;;;;;6.93;1.45;;;20.60;99.90;;;;;;5113290;28;20223;-76
2022/12/20 00:45:07;;;;;;;4.85;1.20;;;20.50;99.90;;;;;;5113357;28;20198;-79
2022/12/20 00:47:38;;;;;;;4.05;0.82;;;20.50;99.90;;;;;;5113279;28;20196;-77
2022/12/20 00:50:09;;;;;;;5.18;0.98;;;20.50;99.90;;;;;;5113210;28;20274;-78
2022/12/20 00:52:40;;;;;;;4.93;0.98;;;20.40;99.90;;;;;;5115456;28;20197;-79
2022/12/20 00:55:11;;;;;;;3.25;0.85;;;20.30;99.90;;;;;;5117043;28;20643;-77
2022/12/20 00:57:44;;;;;;;3.75;0.70;;;20.40;99.90;;;;;;5117009;28;20192;-77
2022/12/20 01:00:16;;;;;;;5.40;0.90;;;20.50;99.90;;;;;;5116903;28;20203;-80
2022/12/20 01:02:47;;;;;;;5.72;1.00;;;20.60;99.90;;;;;;5116947;28;20211;-79
2022/12/20 01:05:17;;;;;;;4.43;0.82;;;20.60;99.90;;;;;;5116887;27;20684;-77
2022/12/20 01:07:48;;;;;;;6.82;1.38;;;20.60;99.90;;;;;;5116480;28;20233;-77
2022/12/20 01:10:19;;;;;;;3.15;0.85;;;20.50;99.90;;;;;;5116573;28;20192;-76
2022/12/20 01:12:52;;;;;;;5.70;0.88;;;20.60;99.90;;;;;;5116778;28;20662;-78
2022/12/20 01:15:23;;;;;;;5.05;0.88;;;20.70;99.90;;;;;;5116995;28;20188;-78
2022/12/20 01:17:53;;;;;;;3.50;0.93;;;21.10;99.90;;;;;;5116634;28;20190;-76
2022/12/20 01:20:24;;;;;;;7.63;0.80;;;21.30;99.90;;;;;;5116429;28;20203;-80
2022/12/20 01:22:55;;;;;;;4.72;1.13;;;21.30;99.90;;;;;;5116400;28;20218;-79
2022/12/20 01:25:25;;;;;;;7.13;0.95;;;21.30;99.90;;;;;;5116112;28;20190;-78
2022/12/20 01:27:58;;;;;;;6.72;0.95;;;21.30;99.90;;;;;;5116438;28;20191;-78
2022/12/20 01:30:29;;;;;;;6.13;0.85;;;21.50;99.90;;;;;;5116306;28;20184;-79
2022/12/20 01:33:00;;;;;;;3.38;0.88;;;22.00;99.90;;;;;;5116239;28;20657;-77
2022/12/20 01:35:30;;;;;;;5.00;0.80;;;22.40;99.90;;;;;;5116207;28;20187;-80
2022/12/20 01:38:01;;;;;;;4.15;1.20;;;22.50;99.90;;;;;;5115981;28;20601;-79
2022/12/20 01:40:32;;;;;;;4.53;0.82;;;22.40;99.90;;;;;;5115971;28;20551;-75
2022/12/20 01:43:05;;;;;;;4.78;1.20;;;21.80;99.90;;;;;;5116119;28;20738;-77
2022/12/20 01:45:36;;;;;;;4.38;0.90;;;21.80;99.90;;;;;;5116052;28;20196;-78
2022/12/20 01:48:07;;;;;;;5.38;1.10;;;22.00;99.90;;;;;;5116015;28;20195;-76
2022/12/20 01:50:38;;;;;;;3.60;1.00;;;22.00;99.90;;;;;;5116244;28;20222;-78
2022/12/20 01:53:09;;;;;;;5.30;0.88;;;22.10;99.90;;;;;;5115796;28;20194;-76
2022/12/20 01:55:40;;;;;;;5.20;0.88;;;22.30;99.90;;;;;;5113805;28;20218;-78
2022/12/20 01:58:14;;;;;;;4.82;1.00;;;22.30;99.90;;;;;;5113688;28;20191;-78
2022/12/20 02:00:45;;;;;;;4.05;0.88;;;22.20;99.90;;;;;;5100377;28;20203;-78
2022/12/20 02:03:21;;;;;;;5.80;1.02;;;22.30;99.90;;;;;;5104990;28;20997;-81
2022/12/20 02:05:51;;;;;;;4.57;0.80;;;22.30;99.90;;;;;;5114396;28;20282;-80
2022/12/20 02:08:23;;;;;;;7.57;1.17;;;22.00;99.90;;;;;;5112053;28;20579;-78
2022/12/20 02:11:08;;;;;;;2.70;0.75;;;21.90;99.90;;;;;;5110104;28;20195;-77
2022/12/20 02:13:49;;;;;;;7.30;0.90;;;22.00;99.90;;;;;;5114660;28;20195;-80
2022/12/20 02:16:28;;;;;;;4.50;0.85;;;21.90;99.90;;;;;;5114800;28;20183;-78
2022/12/20 02:19:06;;;;;;;5.15;1.00;;;21.90;99.90;;;;;;5114651;28;20278;-77
2022/12/20 02:21:41;;;;;;;4.18;0.93;;;22.10;99.90;;;;;;5105716;28;20206;-81
2022/12/20 02:24:49;;;;;;;6.68;1.00;;;22.20;99.90;;;;;;5115026;28;20202;-78
2022/12/20 02:27:50;;;;;;;4.20;0.90;;;22.30;99.90;;;;;;5113034;28;20195;-76
2022/12/20 02:30:24;;;;;;;5.82;0.90;;;22.50;99.90;;;;;;5100529;28;20211;-80
2022/12/20 02:33:01;;;;;;;4.20;0.80;;;22.40;99.90;;;;;;5094780;28;20200;-78
2022/12/20 02:35:33;;;;;;;5.93;0.98;;;22.20;99.90;;;;;;5109499;28;20635;-77
2022/12/20 02:38:07;;;;;;;5.03;0.90;;;21.90;99.90;;;;;;5094296;28;20243;-80
2022/12/20 02:40:41;;;;;;;4.18;0.80;;;22.00;99.90;;;;;;5094960;28;20189;-78
2022/12/20 02:46:00;;;;;;;5.68;1.00;;;21.90;99.90;;;;;;5113682;28;20203;-77
2022/12/20 02:48:33;;;;;;;4.70;0.80;;;21.90;99.90;;;;;;5110835;28;20187;-78
2022/12/20 02:51:06;;;;;;;5.07;0.88;;;21.90;99.90;;;;;;5114223;28;20195;-80
2022/12/20 02:53:38;;;;;;;4.75;1.10;;;21.90;99.90;;;;;;5113873;28;20609;-80
2022/12/20 02:56:15;;;;;;;5.60;0.90;;;22.10;99.90;;;;;;5112214;28;20201;-78
2022/12/20 02:58:50;;;;;;;3.30;0.73;;;22.10;99.90;;;;;;5106862;28;20183;-78
2022/12/20 03:01:28;;;;;;;6.80;2.40;;;22.10;99.90;;;;;;5109370;28;20191;-80
2022/12/20 03:04:00;;;;;;;4.00;0.80;;;22.20;99.90;;;;;;5114506;28;20653;-79
2022/12/20 03:06:31;;;;;;;4.25;0.88;;;22.10;99.90;;;;;;5109744;28;20216;-83
2022/12/20 03:09:02;;;;;;;4.68;0.65;;;22.00;99.90;;;;;;5114065;28;20590;-76
2022/12/20 03:11:32;;;;;;;5.15;1.10;;;21.90;99.90;;;;;;5113643;28;20198;-77
2022/12/20 03:14:03;;;;;;;5.10;0.88;;;21.90;99.90;;;;;;5113179;28;20635;-78
2022/12/20 03:16:36;;;;;;;3.22;0.88;;;22.00;99.90;;;;;;5112698;28;20586;-83
2022/12/20 03:19:06;;;;;;;4.75;1.15;;;22.20;99.90;;;;;;5106945;28;20194;-77
2022/12/20 03:21:37;;;;;;;5.18;0.90;;;22.00;99.90;;;;;;5114031;28;20206;-78
2022/12/20 03:24:09;;;;;;;3.78;0.90;;;22.00;99.90;;;;;;5112927;28;20231;-78
2022/12/20 03:26:40;;;;;;;3.67;0.88;;;21.90;99.90;;;;;;5113527;28;20187;-77
2022/12/20 03:29:11;;;;;;;3.92;0.60;;;21.80;99.90;;;;;;5108660;28;20266;-79
2022/12/20 03:31:44;;;;;;;5.03;0.80;;;21.70;99.90;;;;;;5111263;28;20192;-76
2022/12/20 03:34:15;;;;;;;2.33;0.63;;;21.60;99.90;;;;;;5113829;28;20192;-77
2022/12/20 03:36:46;;;;;;;6.30;1.73;;;21.60;99.90;;;;;;5113231;28;20226;-78
2022/12/20 03:39:17;;;;;;;6.38;2.80;;;21.50;99.90;;;;;;5110495;28;20198;-78
2022/12/20 03:41:48;;;;;;;9.30;4.05;;;21.50;99.90;;;;;;5113322;28;20202;-76
2022/12/20 03:44:18;;;;;;;4.30;0.95;;;21.50;99.90;;;;;;5113172;28;20271;-77
2022/12/20 03:46:51;;;;;;;2.30;0.70;;;21.50;99.90;;;;;;5113967;28;20190;-76
2022/12/20 03:49:22;;;;;;;3.00;0.50;;;21.50;99.90;;;;;;5113305;28;20191;-77
2022/12/20 03:51:52;;;;;;;3.15;0.70;;;21.40;99.90;;;;;;5121430;27;20235;-78
2022/12/20 03:54:23;;;;;;;4.78;0.70;;;21.30;99.90;;;;;;5114907;27;20195;-79
2022/12/20 03:56:54;;;;;;;3.38;0.65;;;21.20;99.90;;;;;;5117751;27;20275;-78
2022/12/20 03:59:25;;;;;;;6.32;2.70;;;21.40;99.90;;;;;;5110621;28;20198;-79
2022/12/20 04:01:58;;;;;;;7.30;4.43;;;21.40;99.90;;;;;;5115309;28;20191;-77
2022/12/20 04:04:29;;;;;;;4.25;0.95;;;21.30;99.90;;;;;;5120280;27;20191;-77
2022/12/20 04:06:59;;;;;;;2.25;1.08;;;21.20;99.90;;;;;;5116385;27;20220;-79
2022/12/20 04:09:30;;;;;;;3.20;0.60;;;21.40;99.90;;;;;;5115546;28;20194;-76
2022/12/20 04:12:01;;;;;;;2.50;0.70;;;21.30;99.90;;;;;;5103392;28;20223;-78
2022/12/20 04:14:32;;;;;;;3.58;0.60;;;21.10;99.90;;;;;;5108756;28;20199;-79
2022/12/20 04:17:05;;;;;;;4.68;0.60;;;21.20;99.90;;;;;;5110940;28;20192;-78
2022/12/20 04:19:36;;;;;;;2.97;0.60;;;21.10;99.90;;;;;;5106864;27;20199;-78
2022/12/20 04:22:06;;;;;;;3.08;0.50;;;21.30;99.90;;;;;;5112200;28;20668;-78
2022/12/20 04:24:37;;;;;;;2.40;0.40;;;21.50;99.90;;;;;;5110507;28;20676;-82
2022/12/20 04:27:08;;;;;;;2.50;0.60;;;21.50;99.90;;;;;;5114427;28;20204;-78
2022/12/20 04:29:39;;;;;;;4.38;0.60;;;21.50;99.90;;;;;;5117199;28;20188;-78
2022/12/20 04:32:12;;;;;;;3.03;0.70;;;21.40;99.90;;;;;;5122155;27;20195;-81
2022/12/20 04:34:43;;;;;;;5.20;0.50;;;21.30;99.90;;;;;;5110714;28;20245;-81
2022/12/20 04:37:13;;;;;;;2.05;0.43;;;21.30;99.90;;;;;;5125457;27;20593;-81
2022/12/20 04:39:44;;;;;;;2.78;0.70;;;21.20;99.90;;;;;;5118683;27;20204;-77
2022/12/20 04:42:15;;;;;;;2.22;0.70;;;21.20;99.90;;;;;;5122555;27;20191;-79
2022/12/20 04:44:46;;;;;;;2.83;0.50;;;21.10;99.90;;;;;;5124555;27;20221;-78
2022/12/20 04:47:18;;;;;;;5.47;0.55;;;21.20;99.90;;;;;;5112677;27;20198;-79
2022/12/20 04:49:49;;;;;;;3.88;0.50;;;21.10;99.90;;;;;;5116584;27;20646;-77
2022/12/20 04:55:06;;;;;;;4.43;0.75;;;21.00;99.90;;;;;;5113088;28;20253;-82
2022/12/20 04:57:37;;;;;;;3.33;0.90;;;21.00;99.90;;;;;;5110753;28;20200;-79
2022/12/20 05:00:09;;;;;;;1.80;0.60;;;21.00;99.90;;;;;;5108242;27;20199;-80
2022/12/20 05:02:41;;;;;;;2.50;0.57;;;20.90;99.90;;;;;;5123555;27;20211;-78
2022/12/20 05:05:12;;;;;;;1.63;0.50;;;20.90;99.90;;;;;;5114957;27;20202;-76
2022/12/20 05:07:44;;;;;;;1.67;0.65;;;21.00;99.90;;;;;;5119935;27;20302;-76
2022/12/20 05:10:14;;;;;;;1.35;0.50;;;21.00;99.90;;;;;;5106852;27;20195;-75
2022/12/20 05:12:45;;;;;;;2.88;0.73;;;21.00;99.90;;;;;;5107784;28;20206;-75
2022/12/20 05:15:16;;;;;;;2.92;0.68;;;20.90;99.90;;;;;;5116931;27;20237;-78
2022/12/20 05:17:49;;;;;;;6.53;0.93;;;20.70;99.90;;;;;;5110783;28;20931;-77
2022/12/20 05:20:20;;;;;;;2.80;0.82;;;20.80;99.90;;;;;;5109862;27;20191;-76
2022/12/20 05:28:23;;;;;;;4.68;0.80;;;20.70;99.90;;;;;;5112003;27;20222;-77
2022/12/20 05:30:54;;;;;;;3.22;0.55;;;20.80;99.90;;;;;;5113172;27;20282;-77
2022/12/20 05:33:27;;;;;;;4.57;0.63;;;20.70;99.90;;;;;;5124231;27;20210;-80
2022/12/20 05:35:58;;;;;;;3.97;0.80;;;20.70;99.90;;;;;;5114862;27;20199;-76
2022/12/20 05:38:29;;;;;;;4.47;0.60;;;20.70;99.90;;;;;;5113677;27;20227;-77
2022/12/20 05:40:59;;;;;;;4.25;0.85;;;20.70;99.90;;;;;;5107675;27;20187;-80
2022/12/20 05:43:30;;;;;;;6.28;0.75;;;20.60;99.90;;;;;;5124403;27;20211;-77
2022/12/20 05:46:01;;;;;;;4.53;0.60;;;20.60;99.90;;;;;;5112473;27;20201;-79
2022/12/20 05:48:34;;;;;;;3.95;0.70;;;20.60;99.90;;;;;;5113014;28;20207;-77
2022/12/20 05:51:05;;;;;;;3.47;0.70;;;20.70;99.90;;;;;;5114663;27;20659;-78
2022/12/20 05:53:35;;;;;;;4.43;0.73;;;20.50;99.90;;;;;;5110071;27;20673;-75
2022/12/20 05:56:07;;;;;;;4.80;0.90;;;20.50;99.90;;;;;;5121983;27;20558;-78
2022/12/20 05:58:37;;;;;;;5.93;0.93;;;20.50;99.90;;;;;;5112998;28;20195;-75
2022/12/20 06:01:09;;;;;;;6.82;0.90;;;20.60;99.90;;;;;;5108217;28;20283;-81
2022/12/20 06:03:42;;;;;;;2.90;0.70;;;20.60;99.90;;;;;;5107315;27;20215;-77
2022/12/20 06:06:13;;;;;;;3.47;0.60;;;20.50;99.90;;;;;;5114028;27;20227;-77
2022/12/20 06:08:44;;;;;;;3.03;0.50;;;20.40;99.90;;;;;;5120945;27;20199;-78
2022/12/20 06:11:15;;;;;;;4.47;0.90;;;20.40;99.90;;;;;;5111668;28;20184;-77
2022/12/20 06:13:46;;;;;;;6.32;0.70;;;20.50;99.90;;;;;;5113956;27;20199;-78
2022/12/20 06:16:19;;;;;;;3.60;0.55;;;20.50;99.90;;;;;;5111212;28;20183;-77
2022/12/20 06:18:52;;;;;;;3.45;0.70;;;20.50;99.90;;;;;;5108691;28;20192;-75
2022/12/20 06:21:23;;;;;;;2.22;0.68;;;20.40;99.90;;;;;;5112280;28;20226;-76
2022/12/20 06:23:54;;;;;;;3.78;0.70;;;20.40;99.90;;;;;;5112918;28;20218;-80
2022/12/20 06:26:24;;;;;;;3.78;0.65;;;20.50;99.90;;;;;;5112890;27;20223;-77
2022/12/20 06:29:00;;;;;;;1.25;0.50;;;20.50;99.90;;;;;;5116535;27;20627;-80
2022/12/20 06:31:31;;;;;;;2.92;0.65;;;20.40;99.90;;;;;;5112746;28;20233;-75
2022/12/20 06:34:04;;;;;;;4.03;0.60;;;20.30;99.90;;;;;;5103082;27;20626;-74
2022/12/20 06:36:35;;;;;;;3.13;0.63;;;20.30;99.90;;;;;;5096095;28;20236;-76
2022/12/20 06:39:07;;;;;;;4.68;0.63;;;20.20;99.90;;;;;;5114432;27;20191;-75
2022/12/20 06:41:38;;;;;;;1.23;0.40;;;20.20;99.90;;;;;;5110536;28;20195;-78
2022/12/20 06:44:09;;;;;;;3.40;0.60;;;20.10;99.90;;;;;;5122954;27;20227;-82
2022/12/20 06:46:41;;;;;;;3.53;0.50;;;20.20;99.90;;;;;;5123730;27;20196;-75
2022/12/20 06:49:13;;;;;;;4.75;0.60;;;20.20;99.90;;;;;;5108831;27;20532;-74
2022/12/20 06:51:44;;;;;;;5.50;0.60;;;20.10;99.90;;;;;;5110433;28;20633;-85
2022/12/20 06:54:15;;;;;;;1.75;0.47;;;20.00;99.90;;;;;;5109214;27;20207;-76
2022/12/20 06:56:46;;;;;;;2.35;0.50;;;20.00;99.90;;;;;;5124686;27;20188;-82
2022/12/20 06:59:16;;;;;;;1.77;0.40;;;20.00;99.90;;;;;;5106640;27;20287;-89
2022/12/20 07:01:47;;;;;;;2.63;0.68;;;20.00;99.90;;;;;;5111714;28;20192;-75
2022/12/20 07:04:20;;;;;;;3.40;0.73;;;20.10;99.90;;;;;;5111940;27;20233;-79
2022/12/20 07:06:51;;;;;;;4.43;1.00;;;20.20;99.90;;;;;;5112744;28;20755;-77
2022/12/20 07:09:22;;;;;;;1.17;0.57;;;20.20;99.90;;;;;;5113303;28;21623;-78
2022/12/20 07:11:53;;;;;;;2.17;0.50;;;20.00;99.90;;;;;;5112928;28;20248;-75
2022/12/20 07:14:23;;;;;;;3.60;0.55;;;20.00;99.90;;;;;;5104386;28;20195;-82
2022/12/20 07:16:54;;;;;;;1.75;0.60;;;20.00;99.90;;;;;;5114750;27;20199;-76
2022/12/20 07:19:27;;;;;;;2.55;0.60;;;19.80;99.90;;;;;;5113637;28;20190;-78
2022/12/20 07:21:58;;;;;;;1.98;0.60;;;19.70;99.90;;;;;;5101764;28;20193;-73
2022/12/20 07:24:28;;;;;;;2.83;0.60;;;19.70;99.90;;;;;;5106213;28;20223;-78
2022/12/20 07:26:59;;;;;;;2.28;0.60;;;19.60;99.90;;;;;;5105633;28;20274;-72
2022/12/20 07:29:30;;;;;;;4.07;1.10;;;19.70;99.90;;;;;;5114072;28;20611;-73
2022/12/20 07:32:01;;;;;;;1.77;0.45;;;19.80;99.90;;;;;;5114153;28;20192;-74
2022/12/20 07:34:34;;;;;;;5.68;2.50;;;19.80;99.90;;;;;;5117628;27;20191;-72
2022/12/20 07:37:05;;;;;;;2.50;1.38;;;19.70;99.90;;;;;;5120046;27;20237;-76
2022/12/20 07:39:35;;;;;;;1.40;0.70;;;19.70;99.90;;;;;;5125172;27;20199;-75
2022/12/20 07:42:06;;;;;;;3.92;1.08;;;19.60;99.90;;;;;;5104742;28;20202;-72
2022/12/20 07:44:37;;;;;;;2.78;0.70;;;19.60;99.90;;;;;;5113691;27;20586;-73
2022/12/20 07:47:08;;;;;;;2.78;0.70;;;19.60;99.90;;;;;;5121685;27;20200;-75
2022/12/20 07:49:41;;;;;;;2.05;0.60;;;19.50;99.90;;;;;;5115904;27;20199;-73
2022/12/20 07:52:14;;;;;;;1.85;0.70;;;19.60;99.90;;;;;;5107446;28;20188;-73
2022/12/20 07:54:49;;;;;;;4.53;0.77;;;19.60;99.90;;;;;;5109889;27;20203;-78
2022/12/20 07:57:25;;;;;;;0.85;0.60;;;19.70;99.90;;;;;;5113866;28;20656;-73
2022/12/20 07:59:58;;;;;;;1.40;0.45;;;19.80;99.90;;;;;;5101494;28;20627;-73
2022/12/20 08:02:37;;;;;;;1.63;0.68;;;19.90;99.90;;;;;;5092507;28;20188;-75
2022/12/20 08:05:11;;;;;;;1.33;0.40;;;19.90;99.90;;;;;;5122565;28;20221;-73
2022/12/20 08:07:43;;;;;;;1.73;0.60;;;19.80;99.90;;;;;;5113476;27;20314;-74
2022/12/20 08:10:15;;;;;;;2.42;0.70;;;19.90;99.90;;;;;;5113568;28;20345;-74
2022/12/20 08:12:47;;;;;;;1.90;0.80;;;19.80;99.90;;;;;;5116151;28;20198;-73
2022/12/20 08:15:20;;;;;;;4.47;0.50;;;19.70;99.90;;;;;;5118896;27;20227;-73
2022/12/20 08:17:51;;;;;;;1.30;0.50;;;19.50;99.90;;;;;;5113154;28;20245;-73
2022/12/20 08:20:24;;;;;;;4.47;0.70;;;19.50;99.90;;;;;;5129002;28;20650;-73
2022/12/20 08:22:54;;;;;;;3.30;0.63;;;19.40;99.90;;;;;;5114840;27;20195;-73
2022/12/20 08:25:25;;;;;;;2.63;0.90;;;19.40;99.90;;;;;;5105264;28;20233;-74
2022/12/20 08:27:56;;;;;;;2.55;0.63;;;19.40;99.90;;;;;;5114287;28;20560;-73
2022/12/20 08:30:27;;;;;;;2.75;0.60;;;19.40;99.90;;;;;;5124859;27;20213;-72
2022/12/20 08:32:58;;;;;;;1.85;0.60;;;19.20;99.90;;;;;;5111645;28;20923;-73
2022/12/20 08:35:30;;;;;;;1.65;0.43;;;19.10;99.90;;;;;;5116718;28;20209;-73
2022/12/20 08:38:01;;;;;;;2.55;0.68;;;19.00;99.90;;;;;;5126517;28;20234;-74
2022/12/20 08:40:32;;;;;;;2.80;0.73;;;19.00;99.90;;;;;;5121229;27;20196;-72
2022/12/20 08:43:03;;;;;;;2.88;0.73;;;18.90;99.90;;;;;;5121622;28;20596;-74
2022/12/20 08:45:34;;;;;;;4.47;1.08;;;18.90;99.90;;;;;;5120428;28;20223;-72
2022/12/20 08:48:04;;;;;;;2.70;0.70;;;18.80;99.90;;;;;;5131958;27;20197;-76
2022/12/20 08:50:37;;;;;;;4.35;0.65;;;18.70;99.90;;;;;;5102733;28;20270;-76
2022/12/20 08:53:08;;;;;;;2.97;0.80;;;18.60;99.90;;;;;;5109211;28;20190;-75
2022/12/20 08:55:39;;;;;;;1.50;0.60;;;18.60;99.90;;;;;;5115521;27;20200;-75
2022/12/20 08:58:10;;;;;;;4.82;0.80;;;18.50;99.90;;;;;;5107582;28;20231;-76
2022/12/20 09:00:40;;;;;;;2.00;0.57;;;18.50;99.90;;;;;;5120558;27;20199;-75
2022/12/20 09:03:12;;;;;;;3.15;0.55;;;18.40;99.90;;;;;;5126854;27;20187;-75
2022/12/20 09:05:49;;;;;;;2.67;0.70;;;18.30;99.90;;;;;;5115230;28;20231;-75
2022/12/20 09:08:20;;;;;;;2.85;0.50;;;18.30;99.90;;;;;;5108956;28;20195;-76
2022/12/20 09:10:50;;;;;;;2.83;0.70;;;18.30;99.90;;;;;;5128597;27;20201;-76
2022/12/20 09:13:22;;;;;;;1.15;0.50;;;18.20;99.90;;;;;;5121492;27;20214;-79
2022/12/20 09:15:53;;;;;;;1.63;0.40;;;18.10;99.90;;;;;;5113058;28;20187;-81
2022/12/20 09:18:24;;;;;;;1.58;0.60;;;18.10;99.90;;;;;;5118982;27;20202;-76
2022/12/20 09:20:56;;;;;;;1.27;0.60;;;18.10;99.90;;;;;;5103525;27;20192;-78
2022/12/20 09:23:27;;;;;;;1.67;0.40;;;18.00;99.90;;;;;;5135120;27;20230;-79
2022/12/20 09:26:03;;;;;;;2.47;0.70;;;18.00;99.90;;;;;;5128854;27;20202;-75
2022/12/20 09:28:34;;;;;;;3.35;0.60;;;18.00;99.90;;;;;;5119441;27;20244;-77
2022/12/20 09:31:07;;;;;;;1.42;0.60;;;17.90;99.90;;;;;;5132789;27;20206;-79
2022/12/20 09:33:38;;;;;;;2.08;0.52;;;17.90;99.90;;;;;;5116415;27;20282;-78
2022/12/20 09:36:14;;;;;;;1.20;0.60;;;17.90;99.90;;;;;;5116130;28;20219;-77
2022/12/20 09:38:45;;;;;;;0.90;0.43;;;17.90;99.90;;;;;;5119887;27;20740;-76
2022/12/20 09:41:27;;;;;;;2.55;0.77;;;17.90;99.90;;;;;;5117469;27;20237;-77
2022/12/20 09:43:58;;;;;;;4.38;1.25;;;17.80;99.90;;;;;;5116248;27;20212;-80
2022/12/20 09:46:29;;;;;;;4.35;0.77;;;17.80;99.90;;;;;;5113691;27;20286;-78
2022/12/20 09:49:00;;;;;;;1.90;0.75;;;17.80;99.90;;;;;;5113047;28;20199;-78
2022/12/20 09:51:49;;;;;;;1.77;0.80;;;17.80;99.90;;;;;;5114222;28;20282;-79
2022/12/20 09:54:30;;;;;;;1.98;0.75;;;17.80;99.90;;;;;;5101759;28;20231;-81
2022/12/20 09:57:07;;;;;;;2.90;0.55;;;17.70;99.90;;;;;;5110620;27;20200;-81
2022/12/20 09:59:40;;;;;;;1.73;0.55;;;17.70;99.90;;;;;;5120074;27;20658;-77
2022/12/20 10:02:13;;;;;;;1.60;0.70;;;17.70;99.90;;;;;;5128721;27;20274;-77
2022/12/20 10:04:44;;;;;;;3.08;0.88;;;17.70;99.90;;;;;;5115333;27;20215;-78
2022/12/20 10:07:29;;;;;;;1.60;0.60;;;17.70;99.90;;;;;;5114149;27;20216;-80
2022/12/20 10:10:15;;;;;;;2.03;0.60;;;17.70;99.90;;;;;;5103367;28;20196;-82
2022/12/20 10:12:52;;;;;;;2.08;1.10;;;17.60;99.90;;;;;;5114297;28;20282;-81
2022/12/20 10:15:26;;;;;;;2.60;0.90;;;17.60;99.90;;;;;;5115592;28;20274;-80
2022/12/20 10:18:11;;;;;;;9.45;4.40;;;17.60;99.90;;;;;;5115492;28;20190;-80
2022/12/20 10:20:54;;;;;;;6.75;2.90;;;17.60;99.90;;;;;;5112788;28;20282;-79
2022/12/20 10:23:32;;;;;;;2.70;1.00;;;17.60;99.90;;;;;;5104228;28;20206;-80
2022/12/20 10:26:03;;;;;;;2.63;0.68;;;17.60;99.90;;;;;;5116177;27;20215;-80
2022/12/20 10:28:36;;;;;;;0.88;0.50;;;17.60;99.90;;;;;;5114948;28;20190;-81
2022/12/20 10:31:09;;;;;;;2.40;1.08;;;17.60;99.90;;;;;;5115217;28;20188;-80
2022/12/20 10:33:40;;;;;;;4.10;1.00;;;17.50;99.90;;;;;;5115140;28;20276;-80
2022/12/20 10:36:27;;;;;;;2.53;1.08;;;17.50;99.90;;;;;;5116955;27;20206;-79
2022/12/20 10:39:01;;;;;;;10.15;5.22;;;17.50;99.90;;;;;;5117430;27;20237;-78
2022/12/20 10:41:33;;;;;;;5.22;1.80;;;17.50;99.90;;;;;;5115126;27;20278;-82
2022/12/20 10:44:07;;;;;;;3.47;1.60;;;17.50;99.90;;;;;;5113896;27;20204;-82
2022/12/20 10:46:40;;;;;;;4.60;1.42;;;17.50;99.90;;;;;;5113783;28;20198;-82
2022/12/20 10:49:30;;;;;;;9.75;5.15;;;17.50;99.90;;;;;;5114517;28;20202;-81
2022/12/20 10:52:02;;;;;;;5.22;2.42;;;17.40;99.90;;;;;;5114884;27;20196;-82
2022/12/20 10:54:37;;;;;;;4.30;1.90;;;17.40;99.90;;;;;;5125274;27;20234;-82
2022/12/20 10:57:23;;;;;;;6.72;3.70;;;17.30;99.90;;;;;;5124542;27;20200;-82
2022/12/20 10:59:55;;;;;;;4.13;1.80;;;17.30;99.90;;;;;;5096682;28;20270;-81
2022/12/20 11:02:31;;;;;;;10.63;4.78;;;17.30;99.90;;;;;;5101458;27;20272;-81
2022/12/20 11:05:05;;;;;;;10.00;3.63;;;17.30;99.90;;;;;;5122318;27;20214;-82
2022/12/20 11:07:36;;;;;;;7.05;3.40;;;17.30;99.90;;;;;;5109481;28;20202;-80
2022/12/20 11:10:22;;;;;;;6.88;4.18;;;17.30;99.90;;;;;;5112152;28;20191;-78
2022/12/20 11:12:56;;;;;;;9.60;4.13;;;17.30;99.90;;;;;;5104098;28;20188;-81
2022/12/20 11:15:29;;;;;;;11.38;5.03;;;17.20;99.90;;;;;;5110881;28;20277;-80
2022/12/20 11:18:05;;;;;;;9.57;4.88;;;17.20;99.90;;;;;;5112823;28;20300;-78
2022/12/20 11:20:44;;;;;;;13.15;6.95;;;17.20;99.90;;;;;;5108775;28;20638;-77
2022/12/20 11:23:28;;;;;;;8.73;4.00;;;17.20;99.90;;;;;;5100943;28;20737;-77
2022/12/20 11:26:20;;;;;;;8.07;4.10;;;17.20;99.90;;;;;;5109142;28;20302;-78
2022/12/20 11:29:06;;;;;;;8.65;4.30;;;17.20;99.90;;;;;;5114219;28;20275;-76
2022/12/20 11:31:50;;;;;;;4.80;2.40;;;17.10;99.90;;;;;;5108991;28;20198;-77
2022/12/20 11:34:35;;;;;;;10.73;5.32;;;17.20;99.90;;;;;;5098427;28;20219;-78
2022/12/20 11:37:18;;;;;;;6.50;3.67;;;17.10;99.90;;;;;;5097626;28;20223;-77
2022/12/20 11:40:04;;;;;;;3.92;2.10;;;17.10;99.90;;;;;;5113577;28;20213;-78
2022/12/20 11:42:48;;;;;;;7.22;4.60;;;17.10;99.90;;;;;;5114030;28;20195;-81
2022/12/20 11:45:28;;;;;;;9.90;5.85;;;17.10;99.90;;;;;;5113982;28;20299;-80
2022/12/20 11:48:19;;;;;;;4.18;1.88;;;17.00;99.90;;;;;;5113557;28;20274;-77
2022/12/20 11:51:03;;;;;;;6.60;4.20;;;17.00;99.90;;;;;;5113652;28;20183;-78
2022/12/20 11:53:41;;;;;;;14.50;8.77;;;17.00;99.90;;;;;;5113915;28;20187;-80
2022/12/20 11:56:16;;;;;;;17.45;9.40;;;17.00;99.90;;;;;;5113843;28;20279;-77
2022/12/20 11:58:55;;;;;;;17.02;9.80;;;16.90;99.90;;;;;;5113670;28;20199;-77
2022/12/20 12:01:30;;;;;;;21.42;11.88;;;16.90;99.90;;;;;;5113377;28;20698;-77
2022/12/20 12:04:11;;;;;;;10.57;6.28;;;16.90;99.90;;;;;;5113721;28;20274;-77
2022/12/20 12:06:45;;;;;;;5.95;2.75;;;16.90;99.90;;;;;;5113333;28;20317;-77
2022/12/20 12:09:25;;;;;;;7.32;4.53;;;16.90;99.90;;;;;;5113575;28;20189;-82
2022/12/20 12:12:02;;;;;;;9.35;5.13;;;16.90;99.90;;;;;;5113866;28;20193;-77
2022/12/20 12:14:47;;;;;;;4.45;2.00;;;16.90;99.90;;;;;;5113283;28;20206;-78
2022/12/20 12:17:24;;;;;;;3.78;1.10;;;16.90;99.90;;;;;;5111955;28;20267;-78
2022/12/20 12:19:58;;;;;;;3.10;1.00;;;16.90;99.90;;;;;;5112190;28;20192;-78
2022/12/20 12:22:34;;;;;;;9.65;5.55;;;16.90;99.90;;;;;;5109622;28;20192;-77
2022/12/20 12:25:11;;;;;;;7.50;3.72;;;16.90;99.90;;;;;;5112661;28;20215;-79
2022/12/20 12:27:41;;;;;;;12.70;7.05;;;16.90;99.90;;;;;;5113341;28;20194;-78
2022/12/20 12:30:18;;;;;;;13.43;6.10;;;17.00;99.90;;;;;;5113419;28;20271;-83
2022/12/20 12:32:54;;;;;;;5.68;3.00;;;17.00;99.90;;;;;;5111410;28;20286;-78
2022/12/20 12:35:56;;;;;;;12.45;6.53;;;17.00;99.90;;;;;;5093163;28;20205;-77
2022/12/20 12:38:51;;;;;;;14.25;6.90;;;17.00;99.90;;;;;;5109845;28;20227;-81
2022/12/20 12:41:59;;;;;;;11.48;6.05;;;17.10;99.90;;;;;;5113378;28;20206;-81
2022/12/20 12:44:41;;;;;;;10.40;4.78;;;17.10;99.90;;;;;;5084042;28;20223;-79
2022/12/20 12:47:18;;;;;;;7.05;2.97;;;17.20;99.90;;;;;;5113251;28;20279;-77
2022/12/20 12:49:51;;;;;;;10.20;4.95;;;17.20;99.90;;;;;;5116764;28;20195;-78
2022/12/20 12:52:47;;;;;;;4.93;2.17;;;17.20;99.90;;;;;;5116735;28;20271;-80
2022/12/20 12:55:42;;;;;;;5.30;2.28;;;17.20;99.90;;;;;;5114106;28;20214;-80
2022/12/20 12:58:34;;;;;;;3.45;0.80;;;17.20;99.90;;;;;;5115829;27;20571;-79
2022/12/20 13:01:10;;;;;;;6.85;3.30;;;17.20;99.90;;;;;;5098541;28;20193;-79
2022/12/20 13:03:48;;;;;;;8.48;3.90;;;17.10;99.90;;;;;;5113394;28;20187;-79
2022/12/20 13:06:56;;;;;;;3.83;1.52;;;17.10;99.90;;;;;;5116444;28;20237;-80
2022/12/20 13:09:41;;;;;;;2.63;1.30;;;17.00;99.90;;;;;;5099907;28;20200;-80
2022/12/20 13:12:49;;;;;;;4.53;1.60;;;17.00;99.90;;;;;;5103118;28;20192;-80
2022/12/20 13:16:06;;;;;;;5.22;2.80;;;16.90;99.90;;;;;;5096226;28;20567;-80
2022/12/20 13:18:37;;;;;;;6.53;3.88;;;16.90;99.90;;;;;;5096257;28;20203;-80
2022/12/20 13:21:37;;;;;;;4.68;2.00;;;16.90;99.90;;;;;;5096315;28;20191;-81
2022/12/20 13:24:56;;;;;;;5.15;2.13;;;16.90;99.90;;;;;;5096661;28;20195;-80
2022/12/20 13:27:30;;;;;;;10.93;4.68;;;16.90;99.90;;;;;;5116330;28;20191;-79
2022/12/20 13:30:29;;;;;;;5.95;3.38;;;16.90;99.90;;;;;;5116240;28;20194;-80
2022/12/20 13:33:24;;;;;;;8.68;4.75;;;16.90;99.90;;;;;;5102355;28;20204;-79
2022/12/20 13:36:00;;;;;;;9.77;4.38;;;16.80;99.90;;;;;;5116122;28;20276;-80